Weather reports worldwide

Advertisment
Besancon, France (7288): temperature & dewpoint: 18.01.2020 04:00:00 - 24.01.2020 04:00:00 (CET)Besancon, France (7288): temperature 5cm: 18.01.2020 04:00:00 - 24.01.2020 04:00:00 (CET)Besancon, France (7288): temperature -20cm & temperature -100cm: 18.01.2020 04:00:00 - 24.01.2020 04:00:00 (CET)Besancon, France (7288): wind speed & gusts: 18.01.2020 04:00:00 - 24.01.2020 04:00:00 (CET)Besancon, France (7288): wind direction: 18.01.2020 04:00:00 - 24.01.2020 04:00:00 (CET)Besancon, France (7288): reduced air pressure: 18.01.2020 04:00:00 - 24.01.2020 04:00:00 (CET)Besancon, France (7288): sunshine duration: 18.01.2020 04:00:00 - 24.01.2020 04:00:00 (CET)Besancon, France (7288): precipitation: 18.01.2020 04:00:00 - 24.01.2020 04:00:00 (CET)
Date & Time tt [°C] td [°C] tt 5cm [°C] tt -20cm [°C] tt -100cm [°C] ff [km/h] ff [kn] fx [km/h] fx [kn] dd ppp [hPa] sd [min] rr [mm]
24.01.2020 04:00:00 - - - - - - - - - - - - -
24.01.2020 03:00:00 -3,0 -3,4 -6,4 2,7 7,3 0 0 6 3 N 1026,9 0 0,0
24.01.2020 02:00:00 -2,9 -3,4 -6,5 2,7 7,3 2 1 5 3 NNE 1027,1 0 0,0
24.01.2020 01:00:00 -2,9 -3,4 -6,6 2,8 7,3 0 0 5 3 N 1027,9 0 0,0
24.01.2020 00:00:00 -2,9 -3,6 -6,7 2,8 7,3 0 0 4 2 N 1028,4 0 0,0
23.01.2020 23:00:00 -2,3 -3,1 -6,4 2,8 7,4 0 0 5 3 N 1028,3 0 0,0
23.01.2020 22:00:00 -2,1 -3,1 -6,2 2,7 7,3 0 0 4 2 N 1027,8 0 0,0
23.01.2020 21:00:00 -1,6 -2,7 -5,8 2,7 7,3 0 0 4 2 N 1027,8 0 0,0
23.01.2020 20:00:00 -1,3 -2,7 -5,6 2,7 7,4 2 1 5 3 NNE 1027,6 0 0,0
23.01.2020 19:00:00 -0,3 -2,4 -4,4 2,7 7,3 0 0 7 4 N 1027,3 0 0,0
23.01.2020 18:00:00 0,8 -2,1 -3,9 2,7 7,4 2 1 5 3 NNE 1026,9 0 0,0
23.01.2020 17:00:00 2,8 -1,8 -0,8 2,7 7,4 0 0 6 3 N 1026,4 5 0,0
23.01.2020 16:00:00 4,4 -1,4 7,8 2,7 7,4 3 2 9 5 N 1026,2 53 0,0
23.01.2020 15:00:00 4,4 -1,0 7,5 2,7 7,4 6 3 14 7 W 1026,5 56 0,0
23.01.2020 14:00:00 4,9 -1,3 13,4 2,8 7,4 4 2 10 5 W 1026,7 60 0,0
23.01.2020 13:00:00 3,8 -1,6 11,4 2,8 7,4 4 2 12 6 NNE 1027,3 60 0,0
23.01.2020 12:00:00 2,3 -2,0 3,3 2,8 7,4 6 4 12 6 NNE 1028,2 60 0,0
23.01.2020 11:00:00 0,7 -2,9 -0,9 2,8 7,4 4 2 11 6 NE 1029,3 60 0,0
23.01.2020 10:00:00 -1,5 -3,1 -7,1 2,9 7,4 2 1 5 3 NE 1029,9 12 0,0
23.01.2020 09:00:00 -3,5 -4,3 -8,4 2,9 7,4 0 0 0 0 N 1030,5 0 0,0
23.01.2020 08:00:00 -3,2 -4,0 -8,3 2,9 7,4 0 0 10 5 N 1030,1 0 0,0
23.01.2020 07:00:00 -3,0 -4,1 -7,4 3,0 7,5 4 2 18 10 NE 1029,4 0 0,0
23.01.2020 06:00:00 -2,7 -4,0 -6,7 3,0 7,5 4 2 15 8 NE 1029,4 0 0,0
23.01.2020 05:00:00 -2,6 -3,9 -7,2 3,0 7,5 6 3 14 8 NE 1029,5 0 0,0
23.01.2020 04:00:00 -2,5 -3,9 -7,0 3,0 7,5 3 1 11 6 NNE 1030,3 0 0,0
23.01.2020 03:00:00 -1,9 -3,6 -7,4 3,1 7,5 4 2 13 7 NE 1030,7 0 0,0
23.01.2020 02:00:00 -1,6 -3,6 -7,1 3,1 7,5 2 1 10 5 NE 1031,0 0 0,0
23.01.2020 01:00:00 -1,9 -3,5 -6,9 3,1 7,5 3 1 9 5 NE 1031,8 0 0,0
23.01.2020 00:00:00 -2,3 -3,6 -6,3 3,1 7,5 0 0 14 7 N 1032,7 0 0,0
22.01.2020 23:00:00 -1,9 -2,9 -6,2 3,1 7,5 4 2 13 7 NE 1033,0 0 0,0
22.01.2020 22:00:00 -2,1 -2,8 -6,7 3,1 7,5 4 2 10 5 NE 1033,1 0 0,0
22.01.2020 21:00:00 -1,8 -2,6 -5,6 3,1 7,5 4 2 13 7 NE 1032,8 0 0,0
22.01.2020 20:00:00 -1,0 -2,4 -4,9 3,1 7,5 0 0 9 5 N 1032,8 0 0,0
22.01.2020 19:00:00 0,0 -1,9 -4,0 3,1 7,6 5 3 10 6 NNE 1033,0 0 0,0
22.01.2020 18:00:00 1,9 -1,5 -3,6 3,1 7,5 0 0 5 3 N 1033,0 0 0,0
22.01.2020 17:00:00 4,2 -0,8 0,5 3,1 7,6 0 0 5 3 N 1032,4 47 0,0
22.01.2020 16:00:00 5,9 -0,4 8,9 3,1 7,6 3 2 7 4 WSW 1032,5 60 0,0
22.01.2020 15:00:00 5,5 -0,6 9,6 3,1 7,6 3 2 11 6 NNW 1032,6 60 0,0
22.01.2020 14:00:00 4,5 -0,5 12,6 3,1 7,6 6 4 17 9 WNW 1033,1 60 0,0
22.01.2020 13:00:00 4,4 -0,8 15,3 3,1 7,6 7 4 13 7 NNW 1033,0 60 0,0
22.01.2020 12:00:00 3,9 -1,7 5,9 3,2 7,6 0 0 8 4 N 1034,0 60 0,0
22.01.2020 11:00:00 1,0 -2,4 -1,0 3,2 7,6 4 2 11 6 NE 1035,2 60 0,0
22.01.2020 10:00:00 -1,5 -2,9 -6,6 3,3 7,6 3 2 11 6 NNE 1035,8 12 0,0
22.01.2020 09:00:00 -3,5 -3,9 -8,2 3,3 7,6 0 0 7 4 N 1036,1 0 0,0
22.01.2020 08:00:00 -3,4 -4,1 -8,0 3,3 7,6 0 0 0 0 N 1035,4 0 0,0
22.01.2020 07:00:00 -3,1 -3,9 -7,6 3,4 7,6 0 0 4 2 N 1035,4 0 0,0
22.01.2020 06:00:00 -3,3 -4,1 -7,4 3,4 7,7 0 0 4 2 N 1035,5 0 0,0
22.01.2020 05:00:00 -3,2 -3,9 -7,6 3,5 7,7 0 0 4 2 N 1035,8 0 0,0
22.01.2020 04:00:00 -3,1 -4,1 -7,3 3,5 7,7 3 1 5 3 NNE 1036,0 0 0,0
22.01.2020 03:00:00 -2,9 -3,9 -7,4 3,5 7,7 2 1 5 3 NNE 1036,4 0 0,0
22.01.2020 02:00:00 -2,9 -3,9 -7,5 3,5 7,7 0 0 4 2 N 1036,7 0 0,0
22.01.2020 01:00:00 -2,1 -3,7 -6,7 3,6 7,7 0 0 8 4 N 1037,0 0 0,0
22.01.2020 00:00:00 -1,2 -3,1 -5,9 3,6 7,7 0 0 5 3 N 1036,9 0 0,0
21.01.2020 23:00:00 -1,0 -3,5 -5,8 3,6 7,7 0 0 13 7 N 1036,5 0 0,0
21.01.2020 22:00:00 -0,1 -3,3 -4,8 3,6 7,7 6 3 14 7 NNE 1036,8 0 0,0
21.01.2020 21:00:00 -0,3 -3,3 -5,0 3,6 7,7 4 2 11 6 NNE 1037,3 0 0,0
21.01.2020 20:00:00 0,2 -3,4 -5,0 3,6 7,7 5 3 11 6 NNE 1037,5 0 0,0
21.01.2020 19:00:00 0,9 -3,4 -4,2 3,6 7,7 3 2 13 7 NNE 1037,5 0 0,0
21.01.2020 18:00:00 2,6 -3,1 -2,9 3,6 7,7 5 3 8 5 NNE 1037,4 0 0,0
21.01.2020 17:00:00 4,4 -2,5 0,9 3,6 7,7 5 3 14 7 NNE 1037,3 50 0,0
21.01.2020 16:00:00 7,0 -1,9 10,9 3,6 7,7 0 0 13 7 N 1037,1 60 0,0
21.01.2020 15:00:00 6,3 -2,8 10,0 3,6 7,7 9 5 16 8 NNE 1037,8 60 0,0
21.01.2020 14:00:00 5,7 -2,7 10,8 3,7 7,7 8 4 15 8 NNE 1038,6 26 0,0
21.01.2020 13:00:00 5,5 -2,8 13,3 3,7 7,7 0 0 10 5 N 1039,1 53 0,0
21.01.2020 12:00:00 3,8 -2,8 8,0 3,7 7,7 4 2 10 6 NNE 1039,9 55 0,0
21.01.2020 11:00:00 2,0 -2,7 -0,6 3,8 7,8 2 1 6 3 NE 1040,4 53 0,0
21.01.2020 10:00:00 0,1 -3,5 -6,1 3,9 7,8 0 0 6 3 N 1040,7 10 0,0
21.01.2020 09:00:00 -2,1 -4,0 -7,7 3,9 7,8 0 0 2 1 N 1041,1 1 0,0
21.01.2020 08:00:00 -2,1 -4,1 -7,6 4,0 7,8 0 0 5 3 N 1041,1 0 0,0
21.01.2020 07:00:00 -2,1 -4,1 -7,4 4,0 7,8 0 0 4 2 N 1041,2 0 0,0
21.01.2020 06:00:00 -1,9 -3,9 -7,2 4,1 7,8 0 0 10 5 N 1041,0 0 0,0
21.01.2020 05:00:00 -2,3 -4,2 -7,2 4,1 7,8 0 0 6 4 N 1040,8 0 0,0
21.01.2020 04:00:00 -1,7 -4,2 -6,7 4,2 7,8 0 0 6 4 N 1040,6 0 0,0
21.01.2020 03:00:00 -1,5 -4,2 -6,4 4,3 7,8 0 0 9 5 N 1040,9 0 0,0
21.01.2020 02:00:00 -0,7 -4,1 -5,7 4,3 7,8 4 2 12 6 NE 1040,5 0 0,0
21.01.2020 01:00:00 -0,5 -4,2 -5,1 4,3 7,8 4 2 19 11 NE 1040,9 0 0,0
21.01.2020 00:00:00 -0,3 -4,2 -5,3 4,4 7,8 3 1 12 6 NE 1040,9 0 0,0
20.01.2020 23:00:00 -0,1 -4,2 -5,7 4,4 7,8 4 2 15 8 ENE 1040,7 0 0,0
20.01.2020 22:00:00 -0,3 -4,0 -5,6 4,4 7,8 3 1 13 7 NE 1040,7 0 0,0
20.01.2020 21:00:00 0,5 -3,6 -4,5 4,4 7,8 5 3 14 8 NE 1040,8 0 0,0
20.01.2020 20:00:00 1,1 -3,0 -4,3 4,4 7,9 3 2 17 9 NE 1041,0 0 0,0
20.01.2020 19:00:00 2,2 -2,0 -2,9 4,4 7,8 6 4 16 9 NE 1040,8 0 0,0
20.01.2020 18:00:00 2,4 -1,6 -2,4 4,4 7,9 3 2 19 11 NE 1041,0 0 0,0
20.01.2020 17:00:00 4,0 -1,6 2,3 4,3 7,9 10 6 32 17 NE 1040,7 52 0,0
20.01.2020 16:00:00 5,2 -2,6 7,9 4,3 7,9 9 5 32 18 NE 1040,7 60 0,0
20.01.2020 15:00:00 5,4 -2,0 7,1 4,3 7,8 10 5 42 23 NE 1040,6 60 0,0
20.01.2020 14:00:00 5,2 -1,9 12,4 4,3 7,9 10 5 33 18 NE 1040,8 60 0,0
20.01.2020 13:00:00 4,9 -1,8 12,8 4,3 7,8 8 5 36 20 NE 1041,4 60 0,0
20.01.2020 12:00:00 4,0 -1,8 6,7 4,3 7,8 11 6 32 18 NE 1041,8 57 0,0
20.01.2020 11:00:00 2,9 -1,8 1,1 4,4 7,9 11 6 31 17 NE 1042,2 60 0,0
20.01.2020 10:00:00 1,9 -1,7 -1,1 4,4 7,9 11 6 30 16 NE 1042,0 9 0,0
20.01.2020 09:00:00 1,2 -1,7 -1,4 4,5 7,9 10 5 35 19 NE 1042,0 0 0,0
20.01.2020 08:00:00 1,3 -1,4 -1,8 4,5 7,9 10 5 34 18 NE 1042,1 0 0,0
20.01.2020 07:00:00 1,1 -1,0 -1,9 4,6 7,9 11 6 35 19 NE 1041,6 0 0,0
20.01.2020 06:00:00 1,0 -0,9 -2,4 4,6 7,9 11 6 27 15 NE 1041,0 0 0,0
20.01.2020 05:00:00 0,9 -1,2 -2,4 4,7 7,9 10 5 44 24 NE 1041,1 0 0,0
20.01.2020 04:00:00 1,1 -1,1 -1,5 4,7 7,9 10 5 36 20 NE 1041,2 0 0,0
20.01.2020 03:00:00 1,2 -1,0 -1,7 4,7 7,9 11 6 32 17 NE 1041,4 0 0,0
20.01.2020 02:00:00 1,3 -0,9 -2,0 4,8 7,9 10 5 30 16 NE 1041,1 0 0,0
20.01.2020 01:00:00 1,1 -0,8 -4,9 4,8 7,9 9 5 23 13 NE 1041,3 0 0,0
20.01.2020 00:00:00 -0,2 -1,6 -5,0 4,9 7,9 5 3 13 7 NE 1041,5 0 0,0
19.01.2020 23:00:00 -0,2 -1,6 -5,0 4,9 7,9 4 2 14 8 NE 1041,3 0 0,0
19.01.2020 22:00:00 0,2 -1,1 -4,2 4,9 7,9 4 2 14 8 NE 1040,9 0 0,0
19.01.2020 21:00:00 1,0 -0,9 -2,4 4,9 7,9 5 3 22 12 NE 1040,4 0 0,0
19.01.2020 20:00:00 1,9 -0,5 -0,7 4,9 8,0 10 6 21 11 NNE 1039,7 0 0,0
19.01.2020 19:00:00 2,5 -0,4 0,3 4,8 7,9 11 6 24 13 NNE 1039,3 0 0,0
19.01.2020 18:00:00 2,9 -0,2 0,6 4,8 7,9 10 6 24 13 NNE 1038,3 0 0,0
19.01.2020 17:00:00 3,7 -0,1 3,0 4,8 7,9 8 4 16 8 NNE 1037,4 27 0,0
19.01.2020 16:00:00 4,0 0,0 3,8 4,8 7,9 5 3 21 11 NE 1036,9 6 0,0
19.01.2020 15:00:00 4,5 0,8 7,7 4,8 7,9 4 2 17 9 ENE 1036,3 42 0,0
19.01.2020 14:00:00 4,4 1,1 7,2 4,8 7,9 5 3 27 15 ENE 1036,3 40 0,0
19.01.2020 13:00:00 4,1 0,2 10,8 4,9 7,9 7 4 21 11 NE 1036,6 54 0,0
19.01.2020 12:00:00 2,7 -0,1 5,1 5,0 7,9 8 5 21 11 NNE 1036,5 60 0,0
19.01.2020 11:00:00 1,5 -0,6 -0,1 5,1 7,9 9 5 22 12 NE 1036,7 60 0,0
19.01.2020 10:00:00 0,6 -0,6 -3,8 5,1 7,9 3 2 21 11 NE 1035,9 14 0,0
19.01.2020 09:00:00 -1,2 -1,5 -7,5 5,2 7,9 10 5 13 7 NNE 1035,5 15 0,0
19.01.2020 08:00:00 -1,9 -2,2 -7,6 5,3 7,9 0 0 5 3 N 1034,6 0 0,0
19.01.2020 07:00:00 -1,6 -2,2 -7,2 5,4 7,9 0 0 7 4 N 1034,2 0 0,0
19.01.2020 06:00:00 -1,2 -1,5 -7,1 5,5 7,9 0 0 10 5 N 1033,5 0 0,0
19.01.2020 05:00:00 -1,2 -1,6 -5,9 5,6 7,9 5 3 14 8 NNE 1032,9 0 0,0
19.01.2020 04:00:00 -0,6 -1,0 -6,0 5,6 7,9 7 4 12 7 NNE 1032,5 0 0,0
19.01.2020 03:00:00 -1,5 -1,8 -6,5 5,7 7,9 3 2 7 4 NE 1032,4 0 0,0
19.01.2020 02:00:00 -0,7 -1,3 -6,1 5,8 7,9 4 2 10 5 NE 1031,6 0 0,0
19.01.2020 01:00:00 -0,8 -0,9 -5,5 5,9 7,9 4 2 10 5 NNE 1031,0 0 0,0
19.01.2020 00:00:00 -0,9 -1,3 -5,5 5,9 7,9 4 2 8 4 NNE 1030,7 0 0,0
18.01.2020 23:00:00 -0,1 -0,4 -5,3 6,0 7,9 0 0 8 4 N 1030,1 0 0,0
18.01.2020 22:00:00 -0,1 -0,4 -5,2 6,1 7,9 0 0 9 5 N 1030,2 0 0,0
18.01.2020 21:00:00 -0,1 -0,2 -5,0 6,1 7,9 0 0 3 2 N 1030,2 0 0,0
18.01.2020 20:00:00 0,1 -0,2 -4,4 6,1 7,9 0 0 5 3 N 1030,3 0 0,0
18.01.2020 19:00:00 1,1 0,4 -3,6 6,1 7,9 0 0 7 4 N 1030,2 0 0,0
18.01.2020 18:00:00 2,1 0,9 -2,5 6,1 7,9 3 1 8 4 NNE 1029,6 0 0,0
18.01.2020 17:00:00 3,9 1,8 0,1 6,1 7,9 0 0 3 2 N 1029,3 4 0,0
18.01.2020 16:00:00 5,0 1,8 5,2 6,1 7,9 0 0 8 4 N 1029,2 16 0,0
18.01.2020 15:00:00 5,3 2,1 5,1 6,1 7,9 3 2 13 7 S 1029,2 5 0,0
18.01.2020 14:00:00 5,6 2,6 6,0 6,0 7,9 5 3 14 7 W 1029,4 4 0,0
18.01.2020 13:00:00 5,7 2,0 6,7 6,1 7,9 6 3 16 9 SW 1029,8 2 0,0
18.01.2020 12:00:00 5,0 2,4 5,9 6,1 7,9 7 4 22 12 SW 1030,5 0 0,0
18.01.2020 11:00:00 4,4 2,4 3,8 6,1 7,9 11 6 23 12 SW 1030,9 3 0,0
18.01.2020 10:00:00 3,5 2,2 0,7 6,2 7,9 10 5 22 12 SW 1030,6 24 0,0
18.01.2020 09:00:00 2,0 1,7 -2,0 6,3 7,9 6 4 13 7 SW 1030,8 17 0,0
18.01.2020 08:00:00 2,0 1,4 -1,4 6,3 7,9 0 0 11 6 N 1030,4 0 0,0
18.01.2020 07:00:00 2,8 2,1 -0,2 6,3 7,9 5 3 11 6 SW 1030,5 0 0,0
18.01.2020 06:00:00 3,2 2,2 1,6 6,4 7,9 6 4 23 12 SSW 1030,3 0 0,0
18.01.2020 05:00:00 3,7 2,5 2,2 6,4 7,9 10 5 27 14 SSW 1029,9 0 0,0
18.01.2020 04:00:00 4,1 3,1 2,7 6,4 7,9 12 6 23 13 SW 1029,7 0 0,0

tt = temperature
td = dewpoint
tt 5cm = temperature 5cm
tt -20cm = temperature -20cm
tt -100cm = temperature -100cm
ff = wind speed
fx = gusts
dd = wind direction
ppp = reduced air pressure
sd = sunshine duration
rr = precipitation

Next stations